CheckWX is a tool to help pilots better visualize weather data.  It is not intended as a substitute for an official pre-flight weather briefing.

13:56:04 UTC

0E0 METAR
Moriarty Airport
Moriarty, New Mexico, USA
Current

21 mins ago

K0E0 261335Z AUTO 00000KT 10SM SCT016 10/08 A3031 RMK AO2 T00950077
Observed
Apr-26 @ 13:35 UTC
Visibility
10 SM
Flight Rules
VFR
Cloud Levels
  • Scattered at 1,600' AGL
Temperature
10°C / 50°F
Dewpoint
C / 46°F
Humidity
88%
Altimeter
30.31" Hg
Pressure
1026.42 hPa
Previous

41 mins ago

K0E0 261315Z AUTO 00000KT 10SM CLR 07/07 A3031 RMK AO2 T00730068
Observed
Apr-26 @ 13:15 UTC
Visibility
10 SM
Flight Rules
VFR
Cloud Levels
  • Clear skies
Temperature
C / 45°F
Dewpoint
C / 45°F
Humidity
100%
Altimeter
30.31" Hg
Pressure
1026.42 hPa
Previous

1 hour ago

K0E0 261255Z AUTO 00000KT 10SM CLR 07/07 A3031 RMK AO2 T00710068
Observed
Apr-26 @ 12:55 UTC
Visibility
10 SM
Flight Rules
VFR
Cloud Levels
  • Clear skies
Temperature
C / 45°F
Dewpoint
C / 45°F
Humidity
100%
Altimeter
30.31" Hg
Pressure
1026.42 hPa